Time;durP1;ratioP1;P1;durP2;ratioP2;P2;SDS_P1;SDS_P2;PMS_P1;PMS_P2;Temp;Humidity;BMP_temperature;BMP_pressure;BME280_temperature;BME280_humidity;BME280_pressure;Samples;Min_cycle;Max_cycle;Signal;HPM_P1;HPM_P2
2021/12/21 00:02:24;;;;;;;272.20;113.70;;;2.00;99.90;;;;;;5052949;28;20035;-55
2021/12/21 00:04:50;;;;;;;350.45;148.43;;;1.90;99.90;;;;;;5052983;28;20021;-55
2021/12/21 00:07:16;;;;;;;375.13;158.13;;;2.00;99.90;;;;;;5053123;28;20025;-51
2021/12/21 00:09:42;;;;;;;286.88;122.95;;;1.90;99.90;;;;;;5053399;28;20066;-54
2021/12/21 00:12:09;;;;;;;290.50;120.93;;;1.90;99.90;;;;;;5052935;28;20021;-51
2021/12/21 00:14:58;;;;;;;282.48;120.32;;;1.90;99.90;;;;;;5052960;28;20033;-51
2021/12/21 00:17:52;;;;;;;255.82;111.20;;;2.00;99.90;;;;;;5052682;28;20467;-52
2021/12/21 00:23:17;;;;;;;232.45;105.63;;;2.20;99.90;;;;;;5053672;28;20128;-57
2021/12/21 00:25:32;;;;;;;242.18;103.15;;;2.20;99.90;;;;;;5056991;28;20075;-51
2021/12/21 00:27:58;;;;;;;263.55;116.53;;;2.20;99.90;;;;;;5056888;28;20017;-52
2021/12/21 00:30:23;;;;;;;220.55;98.60;;;2.10;99.90;;;;;;5057526;28;20025;-47
2021/12/21 00:32:49;;;;;;;204.07;91.88;;;2.10;99.90;;;;;;5057149;28;20429;-56
2021/12/21 00:35:15;;;;;;;236.07;104.80;;;2.20;99.90;;;;;;5057074;28;20374;-52
2021/12/21 00:37:42;;;;;;;221.98;95.53;;;2.20;99.90;;;;;;5056803;28;20053;-53
2021/12/21 00:40:09;;;;;;;205.80;91.50;;;2.10;99.90;;;;;;5056773;28;20025;-53
2021/12/21 00:42:35;;;;;;;213.70;93.65;;;2.00;99.90;;;;;;5056791;28;20044;-53
2021/12/21 00:45:01;;;;;;;184.63;83.55;;;1.90;99.90;;;;;;5057236;28;20487;-54
2021/12/21 00:47:26;;;;;;;169.90;75.10;;;2.10;99.90;;;;;;5056707;28;20021;-52
2021/12/21 00:50:01;;;;;;;155.95;70.57;;;2.10;99.90;;;;;;5056265;28;20049;-53
2021/12/21 00:52:27;;;;;;;149.63;65.47;;;2.10;99.90;;;;;;5056659;28;20040;-53
2021/12/21 00:54:53;;;;;;;140.75;64.43;;;2.10;99.90;;;;;;5056783;28;20029;-56
2021/12/21 00:57:19;;;;;;;139.45;61.83;;;2.20;99.90;;;;;;5056463;28;20025;-52
2021/12/21 00:59:44;;;;;;;121.68;58.30;;;2.20;99.90;;;;;;5056372;28;20363;-52
2021/12/21 01:02:11;;;;;;;168.32;73.82;;;2.20;99.90;;;;;;5056379;28;20099;-51
2021/12/21 01:04:42;;;;;;;164.35;70.53;;;2.10;99.90;;;;;;5056277;28;20104;-53
2021/12/21 01:10:39;;;;;;;146.13;64.40;;;1.90;99.90;;;;;;5056183;28;20036;-56
2021/12/21 01:15:28;;;;;;;117.55;52.55;;;1.90;99.90;;;;;;5055905;28;20017;-56
2021/12/21 01:20:31;;;;;;;104.45;46.25;;;1.90;99.90;;;;;;5056288;28;20029;-55
2021/12/21 01:30:46;;;;;;;129.63;55.05;;;1.70;99.90;;;;;;5055595;28;20057;-55
2021/12/21 01:35:58;;;;;;;120.65;51.95;;;1.70;99.90;;;;;;5055262;28;20529;-53
2021/12/21 01:41:23;;;;;;;106.00;49.35;;;1.70;99.90;;;;;;5055512;28;20422;-56
2021/12/21 01:44:25;;;;;;;113.05;48.13;;;1.60;99.90;;;;;;5055536;28;20028;-53
2021/12/21 01:52:21;;;;;;;100.55;43.95;;;1.60;99.90;;;;;;5054201;28;20051;-51
2021/12/21 01:54:48;;;;;;;70.53;33.00;;;1.60;99.90;;;;;;5055476;28;20013;-50
2021/12/21 01:57:15;;;;;;;51.03;25.27;;;1.60;99.90;;;;;;5055382;28;20028;-56
2021/12/21 01:59:42;;;;;;;51.78;25.73;;;1.30;99.90;;;;;;5055021;28;20021;-56
2021/12/21 02:02:09;;;;;;;64.22;30.73;;;1.10;99.90;;;;;;5055215;28;20025;-55
2021/12/21 02:04:36;;;;;;;63.58;30.83;;;1.10;99.90;;;;;;5055192;28;20036;-55
2021/12/21 02:07:03;;;;;;;83.53;39.40;;;1.20;99.90;;;;;;5055363;28;20025;-56
2021/12/21 02:09:37;;;;;;;70.72;33.05;;;1.30;99.90;;;;;;5055338;28;20021;-55
2021/12/21 02:12:04;;;;;;;86.22;39.75;;;1.30;99.90;;;;;;5055361;28;20092;-53
2021/12/21 02:14:30;;;;;;;68.18;35.55;;;1.30;99.90;;;;;;5054820;28;20025;-52
2021/12/21 02:20:06;;;;;;;73.75;34.67;;;1.30;99.90;;;;;;5054882;28;20028;-55
2021/12/21 02:22:36;;;;;;;68.35;33.35;;;1.30;99.90;;;;;;5054911;28;20476;-50
2021/12/21 02:25:31;;;;;;;113.55;49.40;;;1.30;99.90;;;;;;5054792;28;20025;-57
2021/12/21 02:30:23;;;;;;;103.22;45.38;;;1.20;99.90;;;;;;5054545;28;20052;-56
2021/12/21 02:32:50;;;;;;;128.43;56.67;;;1.30;99.90;;;;;;5054625;28;20039;-57
2021/12/21 02:35:16;;;;;;;132.40;60.38;;;1.30;99.90;;;;;;5054508;28;20017;-53
2021/12/21 02:37:42;;;;;;;113.70;52.78;;;1.30;99.90;;;;;;5054824;28;20029;-54
2021/12/21 02:40:08;;;;;;;130.35;56.88;;;1.10;99.90;;;;;;5054443;28;20025;-55
2021/12/21 02:42:34;;;;;;;111.55;49.20;;;1.10;99.90;;;;;;5054526;28;20040;-58
2021/12/21 02:45:00;;;;;;;104.38;45.17;;;1.10;99.90;;;;;;5054453;28;20017;-54
2021/12/21 02:47:26;;;;;;;87.07;43.20;;;1.00;99.90;;;;;;5054296;28;20017;-54
2021/12/21 02:49:52;;;;;;;103.43;46.75;;;1.10;99.90;;;;;;5054136;28;20088;-54
2021/12/21 02:52:18;;;;;;;105.30;46.95;;;1.10;99.90;;;;;;5054227;28;20108;-56
2021/12/21 02:54:43;;;;;;;108.13;51.50;;;1.20;99.90;;;;;;5054549;28;20025;-54
2021/12/21 02:57:09;;;;;;;116.22;51.47;;;1.30;99.90;;;;;;5054317;28;20017;-57
2021/12/21 02:59:35;;;;;;;126.70;55.20;;;1.40;99.90;;;;;;5052842;28;20391;-51
2021/12/21 03:02:01;;;;;;;67.90;34.08;;;1.40;99.90;;;;;;5054027;28;20021;-54
2021/12/21 03:04:27;;;;;;;55.78;26.08;;;1.30;99.90;;;;;;5054320;28;20032;-50
2021/12/21 03:09:39;;;;;;;62.17;28.15;;;1.00;99.90;;;;;;5054103;28;20429;-57
2021/12/21 03:14:38;;;;;;;86.32;36.53;;;1.00;99.90;;;;;;5053873;28;20029;-54
2021/12/21 03:17:05;;;;;;;115.85;49.78;;;1.00;99.90;;;;;;5053864;28;20029;-53
2021/12/21 03:19:31;;;;;;;82.18;36.63;;;1.00;99.90;;;;;;5053691;28;20067;-55
2021/12/21 03:21:56;;;;;;;78.40;35.05;;;1.00;99.90;;;;;;5053586;28;20061;-53
2021/12/21 03:24:22;;;;;;;71.85;33.95;;;1.00;99.90;;;;;;5053689;28;20063;-57
2021/12/21 03:26:50;;;;;;;78.03;36.10;;;1.00;99.90;;;;;;5053423;28;20025;-53
2021/12/21 03:29:16;;;;;;;71.85;33.75;;;1.00;99.90;;;;;;5053757;28;20125;-53
2021/12/21 03:31:42;;;;;;;60.42;30.02;;;1.00;99.90;;;;;;5053618;28;20056;-53
2021/12/21 03:34:08;;;;;;;58.05;26.33;;;0.90;99.90;;;;;;5053834;28;20017;-54
2021/12/21 03:36:33;;;;;;;53.85;26.15;;;0.90;99.90;;;;;;5053328;28;20513;-54
2021/12/21 03:39:06;;;;;;;59.20;26.67;;;0.80;99.90;;;;;;5053459;28;20028;-52
2021/12/21 03:41:34;;;;;;;51.15;24.85;;;0.80;99.90;;;;;;5053377;28;20037;-55
2021/12/21 03:44:01;;;;;;;56.17;26.67;;;0.80;99.90;;;;;;5053539;28;20028;-55
2021/12/21 03:46:31;;;;;;;53.35;23.48;;;0.80;99.90;;;;;;5053381;28;20028;-56
2021/12/21 03:48:57;;;;;;;60.50;28.77;;;0.80;99.90;;;;;;5053019;28;20025;-56
2021/12/21 03:51:23;;;;;;;50.28;23.48;;;0.80;99.90;;;;;;5053317;28;20090;-53
2021/12/21 03:53:49;;;;;;;45.28;22.85;;;0.70;99.90;;;;;;5053502;28;20110;-54
2021/12/21 03:58:44;;;;;;;49.05;24.20;;;0.70;99.90;;;;;;5053233;28;20025;-55
2021/12/21 04:01:10;;;;;;;48.35;23.88;;;0.60;99.90;;;;;;5053449;28;20417;-55
2021/12/21 04:03:36;;;;;;;45.08;20.73;;;0.60;99.90;;;;;;5053179;28;20032;-57
2021/12/21 04:06:03;;;;;;;41.05;19.45;;;0.60;99.90;;;;;;5053288;28;20021;-54
2021/12/21 04:08:28;;;;;;;43.30;20.30;;;0.60;99.90;;;;;;5053146;28;20027;-57
2021/12/21 04:10:54;;;;;;;37.30;18.53;;;0.50;99.90;;;;;;5053159;28;20029;-54
2021/12/21 04:13:20;;;;;;;37.43;17.70;;;0.50;99.90;;;;;;5052956;28;20048;-55
2021/12/21 04:15:50;;;;;;;46.85;20.35;;;0.50;99.90;;;;;;5053356;28;20075;-55
2021/12/21 04:18:19;;;;;;;33.90;18.15;;;0.50;99.90;;;;;;5053075;28;20070;-54
2021/12/21 04:20:45;;;;;;;45.53;22.25;;;0.50;99.90;;;;;;5052860;28;20048;-55
2021/12/21 04:23:11;;;;;;;39.85;18.67;;;0.50;99.90;;;;;;5052972;28;20036;-51
2021/12/21 04:25:37;;;;;;;38.85;19.05;;;0.50;99.90;;;;;;5053021;28;20017;-55
2021/12/21 04:28:03;;;;;;;38.70;19.20;;;0.40;99.90;;;;;;5053207;28;20467;-55
2021/12/21 04:30:29;;;;;;;45.17;21.80;;;0.40;99.90;;;;;;5053240;28;20112;-52
2021/12/21 04:32:55;;;;;;;46.28;21.90;;;0.40;99.90;;;;;;5052974;28;20102;-54
2021/12/21 04:35:22;;;;;;;35.75;19.05;;;0.40;99.90;;;;;;5052714;28;20078;-54
2021/12/21 04:37:54;;;;;;;52.70;24.70;;;0.40;99.90;;;;;;5052918;28;20025;-55
2021/12/21 04:40:24;;;;;;;44.63;21.30;;;0.40;99.90;;;;;;5052639;28;20413;-56
2021/12/21 04:42:50;;;;;;;50.20;25.83;;;0.40;99.90;;;;;;5052772;28;20021;-55
2021/12/21 04:45:16;;;;;;;60.15;26.92;;;0.30;99.90;;;;;;5051518;28;20107;-52
2021/12/21 04:47:42;;;;;;;62.25;29.88;;;0.30;99.90;;;;;;5052762;28;20035;-54
2021/12/21 04:50:08;;;;;;;82.67;38.47;;;0.20;99.90;;;;;;5052373;28;20057;-47
2021/12/21 04:52:34;;;;;;;85.25;38.05;;;0.10;99.90;;;;;;5052512;28;20024;-51
2021/12/21 04:55:00;;;;;;;78.77;35.87;;;-0.10;99.90;;;;;;5052665;28;20025;-53
2021/12/21 04:57:26;;;;;;;62.17;30.50;;;-0.20;99.90;;;;;;5052512;28;20108;-57
2021/12/21 04:59:52;;;;;;;53.93;26.07;;;-0.30;99.90;;;;;;5052652;28;20376;-52
2021/12/21 05:02:18;;;;;;;60.47;28.67;;;-0.20;99.90;;;;;;5052530;28;20040;-53
2021/12/21 05:04:43;;;;;;;68.97;31.30;;;-0.10;99.90;;;;;;5052468;28;20075;-51
2021/12/21 05:07:09;;;;;;;53.17;26.65;;;0.00;99.90;;;;;;5052536;28;20104;-56
2021/12/21 05:09:44;;;;;;;60.38;30.05;;;0.00;99.90;;;;;;5052629;28;20017;-53
2021/12/21 05:12:12;;;;;;;60.33;28.52;;;0.00;99.90;;;;;;5056290;28;20056;-53
2021/12/21 05:14:39;;;;;;;62.60;28.87;;;0.00;99.90;;;;;;5056146;28;20029;-53
2021/12/21 05:17:05;;;;;;;73.10;31.35;;;0.00;99.90;;;;;;5056127;28;20028;-52
2021/12/21 05:19:32;;;;;;;57.28;27.00;;;0.00;99.90;;;;;;5055937;28;20383;-49
2021/12/21 05:21:57;;;;;;;63.93;29.43;;;0.00;99.90;;;;;;5055716;28;20024;-54
2021/12/21 05:24:23;;;;;;;48.10;24.43;;;0.00;99.90;;;;;;5056036;28;20029;-53
2021/12/21 05:26:49;;;;;;;61.45;27.88;;;0.00;99.90;;;;;;5055564;28;20017;-51
2021/12/21 05:29:15;;;;;;;64.07;28.57;;;0.00;99.90;;;;;;5055890;28;20079;-53
2021/12/21 05:31:41;;;;;;;56.33;26.17;;;-0.10;99.90;;;;;;5055587;28;20475;-54
2021/12/21 05:34:06;;;;;;;58.83;25.63;;;-0.10;99.90;;;;;;5055521;28;20052;-53
2021/12/21 05:36:32;;;;;;;49.10;24.77;;;-0.10;99.90;;;;;;5055237;28;20079;-56
2021/12/21 05:39:03;;;;;;;73.60;29.97;;;-0.20;99.90;;;;;;5055759;28;20021;-53
2021/12/21 05:41:45;;;;;;;74.03;31.90;;;-0.10;99.90;;;;;;5055452;28;20150;-52
2021/12/21 05:44:11;;;;;;;53.97;26.80;;;-0.10;99.90;;;;;;5055339;28;20537;-55
2021/12/21 05:46:37;;;;;;;54.27;25.47;;;-0.20;99.90;;;;;;5055318;28;20063;-55
2021/12/21 05:49:03;;;;;;;59.23;25.40;;;-0.20;99.90;;;;;;5054933;28;20084;-50
2021/12/21 05:51:29;;;;;;;61.10;26.67;;;-0.20;99.90;;;;;;5055190;28;20036;-52
2021/12/21 05:53:54;;;;;;;78.60;33.37;;;-0.20;99.90;;;;;;5055306;28;20107;-56
2021/12/21 05:56:20;;;;;;;57.77;27.77;;;-0.20;99.90;;;;;;5054520;28;20059;-55
2021/12/21 05:58:46;;;;;;;70.67;33.70;;;-0.20;99.90;;;;;;5055082;28;20036;-51
2021/12/21 06:01:13;;;;;;;118.40;49.07;;;-0.20;99.90;;;;;;5055123;28;20029;-52
2021/12/21 06:03:38;;;;;;;108.73;44.03;;;-0.30;99.90;;;;;;5054491;28;20051;-55
2021/12/21 06:06:10;;;;;;;114.63;46.87;;;-0.50;99.90;;;;;;5055003;28;20495;-54
2021/12/21 06:08:36;;;;;;;110.47;44.63;;;-0.60;99.90;;;;;;5045816;28;20098;-54
2021/12/21 06:11:05;;;;;;;102.23;43.93;;;-0.70;99.90;;;;;;5045121;28;20024;-49
2021/12/21 06:26:33;;;;;;;73.50;33.60;;;-0.50;99.90;;;;;;5038382;28;20024;-54
2021/12/21 06:28:59;;;;;;;90.03;39.30;;;-0.50;99.90;;;;;;5040590;28;20068;-54
2021/12/21 06:31:24;;;;;;;87.97;38.20;;;-0.40;99.90;;;;;;5044172;28;20449;-50
2021/12/21 06:33:50;;;;;;;71.50;31.83;;;-0.40;99.90;;;;;;5041571;28;20104;-55
2021/12/21 06:36:17;;;;;;;114.90;49.40;;;-0.40;99.90;;;;;;5038393;28;20112;-51
2021/12/21 06:38:42;;;;;;;83.03;36.60;;;-0.40;99.90;;;;;;5046650;28;20425;-52
2021/12/21 06:41:08;;;;;;;89.47;38.57;;;-0.40;99.90;;;;;;5047898;28;20344;-56
2021/12/21 06:43:35;;;;;;;87.50;39.17;;;-0.40;99.90;;;;;;5054129;28;20032;-56
2021/12/21 06:46:45;;;;;;;89.17;40.03;;;-0.40;99.90;;;;;;5046034;28;20039;-53
2021/12/21 06:51:54;;;;;;;99.93;44.58;;;-0.50;99.90;;;;;;5048155;28;20075;-53
2021/12/21 06:54:21;;;;;;;104.90;45.58;;;-0.60;99.90;;;;;;5049494;28;20247;-55
2021/12/21 06:56:47;;;;;;;164.20;68.47;;;-0.50;99.90;;;;;;5050035;28;20036;-53
2021/12/21 06:59:13;;;;;;;130.07;57.40;;;-0.50;99.90;;;;;;5049715;28;20098;-56
2021/12/21 07:01:39;;;;;;;237.97;104.03;;;-0.50;99.90;;;;;;5046687;28;20046;-54
2021/12/21 07:04:08;;;;;;;191.13;84.33;;;-0.50;99.90;;;;;;5035910;28;20364;-57
2021/12/21 07:06:35;;;;;;;162.07;72.50;;;-0.50;99.90;;;;;;5038853;28;20488;-54
2021/12/21 07:09:10;;;;;;;129.13;56.53;;;-0.50;99.90;;;;;;5042621;28;20060;-56
2021/12/21 07:11:45;;;;;;;122.20;56.87;;;-0.40;99.90;;;;;;5041829;28;20376;-50
2021/12/21 07:19:43;;;;;;;102.13;41.47;;;-0.30;99.90;;;;;;5051759;28;20024;-56
2021/12/21 07:22:12;;;;;;;92.17;39.27;;;-0.20;99.90;;;;;;5047955;28;20104;-56
2021/12/21 07:24:38;;;;;;;79.30;37.13;;;-0.10;99.90;;;;;;5037997;28;20037;-56
2021/12/21 07:27:04;;;;;;;145.20;62.53;;;-0.10;99.90;;;;;;5031668;28;20480;-54
2021/12/21 07:29:30;;;;;;;107.63;49.97;;;0.00;99.90;;;;;;5030067;28;20024;-51
2021/12/21 07:31:56;;;;;;;103.83;45.63;;;-0.10;99.90;;;;;;5031032;28;20040;-58
2021/12/21 07:34:22;;;;;;;90.17;40.40;;;0.00;99.90;;;;;;5045979;28;20021;-54
2021/12/21 07:36:48;;;;;;;82.07;37.30;;;0.00;99.90;;;;;;5028916;28;20033;-54
2021/12/21 07:39:17;;;;;;;101.03;45.63;;;0.20;99.90;;;;;;5043184;28;20029;-56
2021/12/21 07:41:44;;;;;;;173.93;82.53;;;0.20;99.90;;;;;;5034693;28;20116;-53
2021/12/21 07:44:10;;;;;;;165.07;78.40;;;0.10;99.90;;;;;;5035706;28;20041;-56
2021/12/21 07:46:36;;;;;;;127.17;61.67;;;0.40;99.90;;;;;;5041051;28;20078;-54
2021/12/21 07:49:03;;;;;;;119.83;55.33;;;0.60;99.90;;;;;;5038377;28;20785;-54
2021/12/21 07:51:29;;;;;;;116.73;55.27;;;0.80;99.90;;;;;;5031543;28;20061;-55
2021/12/21 07:53:56;;;;;;;135.33;61.40;;;1.00;99.90;;;;;;5029498;28;20053;-58
2021/12/21 07:56:22;;;;;;;145.83;65.57;;;1.80;99.90;;;;;;5030086;28;20056;-59
2021/12/21 07:58:48;;;;;;;112.05;53.63;;;2.90;93.90;;;;;;5040825;28;20018;-57
2021/12/21 08:01:14;;;;;;;107.90;50.95;;;3.40;91.40;;;;;;5044656;28;20033;-52
2021/12/21 08:03:40;;;;;;;98.40;47.35;;;4.20;88.00;;;;;;5040634;28;20506;-51
2021/12/21 08:06:09;;;;;;;109.30;50.05;;;5.70;79.90;;;;;;5033648;28;20029;-51
2021/12/21 08:08:39;;;;;;;108.03;55.40;;;6.60;69.20;;;;;;5032534;28;20030;-52
2021/12/21 08:13:35;;;;;;;122.53;60.22;;;7.70;61.40;;;;;;5048161;28;20086;-55
2021/12/21 08:16:01;;;;;;;110.25;55.40;;;8.00;58.60;;;;;;5049120;28;20017;-53
2021/12/21 08:18:26;;;;;;;126.35;59.35;;;7.60;57.90;;;;;;5045562;28;20426;-52
2021/12/21 08:20:52;;;;;;;150.15;72.70;;;7.00;58.60;;;;;;5037486;28;20033;-51
2021/12/21 08:23:19;;;;;;;131.35;63.88;;;6.90;58.90;;;;;;5038857;28;20064;-54
2021/12/21 08:25:44;;;;;;;188.68;92.03;;;7.20;58.20;;;;;;5045649;28;20021;-53
2021/12/21 08:28:11;;;;;;;202.13;100.90;;;6.40;58.40;;;;;;5050819;28;20506;-54
2021/12/21 08:30:37;;;;;;;238.23;115.80;;;5.80;62.00;;;;;;5052013;28;20047;-51
2021/12/21 08:33:04;;;;;;;188.88;94.57;;;6.00;62.40;;;;;;5052346;28;20070;-57
2021/12/21 08:35:31;;;;;;;181.43;95.90;;;5.80;63.30;;;;;;5051668;28;20021;-55
2021/12/21 08:38:14;;;;;;;181.52;92.47;;;5.30;63.20;;;;;;5051285;28;20410;-54
2021/12/21 08:40:41;;;;;;;165.73;84.90;;;5.00;66.90;;;;;;5051347;28;20064;-54
2021/12/21 08:43:11;;;;;;;224.63;111.47;;;5.60;69.00;;;;;;5051683;28;20021;-53
2021/12/21 08:45:39;;;;;;;208.68;108.82;;;6.20;64.70;;;;;;5054367;28;20044;-58
2021/12/21 08:48:05;;;;;;;267.42;128.27;;;5.80;65.00;;;;;;5054226;28;20021;-55
2021/12/21 08:50:32;;;;;;;294.38;145.52;;;5.40;66.10;;;;;;5045048;28;20049;-56
2021/12/21 08:52:59;;;;;;;411.23;205.60;;;5.80;68.30;;;;;;5045671;28;20038;-56
2021/12/21 08:55:25;;;;;;;394.88;197.38;;;6.10;64.40;;;;;;5046326;28;20367;-49
2021/12/21 08:57:51;;;;;;;390.83;193.70;;;6.20;64.90;;;;;;5044140;28;20056;-57
2021/12/21 09:00:17;;;;;;;366.95;184.25;;;6.10;65.30;;;;;;5041631;28;20060;-54
2021/12/21 09:02:43;;;;;;;352.60;178.88;;;6.00;65.10;;;;;;5041888;28;20035;-52
2021/12/21 09:05:14;;;;;;;379.25;196.50;;;6.00;68.60;;;;;;5045287;28;20691;-49
2021/12/21 09:07:44;;;;;;;379.73;201.13;;;6.20;66.90;;;;;;5045267;28;20116;-53
2021/12/21 09:10:12;;;;;;;322.27;167.68;;;6.20;67.50;;;;;;5045259;28;20386;-51
2021/12/21 09:12:37;;;;;;;352.65;186.07;;;6.30;66.80;;;;;;5031566;28;20033;-51
2021/12/21 09:15:06;;;;;;;462.38;256.40;;;6.40;65.10;;;;;;5043548;28;20372;-50
2021/12/21 09:17:31;;;;;;;412.98;220.13;;;6.40;65.40;;;;;;5052658;28;20025;-52
2021/12/21 09:19:58;;;;;;;363.25;188.38;;;6.70;64.20;;;;;;5053515;28;20024;-55
2021/12/21 09:22:24;;;;;;;322.45;162.38;;;6.90;62.70;;;;;;5053925;28;20025;-55
2021/12/21 09:24:50;;;;;;;178.70;94.03;;;7.20;62.10;;;;;;5037115;28;20049;-51
2021/12/21 09:27:16;;;;;;;204.93;108.75;;;7.50;56.30;;;;;;5035695;28;20048;-53
2021/12/21 09:29:42;;;;;;;168.38;88.72;;;7.50;56.50;;;;;;5035668;28;20475;-53
2021/12/21 09:32:13;;;;;;;131.25;72.03;;;7.80;57.90;;;;;;5035422;28;20037;-45
2021/12/21 09:34:39;;;;;;;79.32;44.13;;;8.30;54.90;;;;;;5034724;28;20052;-53
2021/12/21 09:37:06;;;;;;;70.63;41.60;;;8.20;53.40;;;;;;5034894;28;20028;-57
2021/12/21 09:39:31;;;;;;;81.78;45.83;;;8.50;53.90;;;;;;5033152;28;20495;-55
2021/12/21 09:41:57;;;;;;;63.35;37.72;;;9.00;52.70;;;;;;5033369;28;20026;-52
2021/12/21 09:44:24;;;;;;;49.22;29.23;;;9.40;52.30;;;;;;5045629;28;20037;-53
2021/12/21 09:46:49;;;;;;;23.27;13.07;;;9.70;51.30;;;;;;5033731;28;20416;-52
2021/12/21 09:49:15;;;;;;;15.60;10.50;;;9.60;48.10;;;;;;5038031;28;20057;-53
2021/12/21 09:51:41;;;;;;;11.55;7.97;;;9.40;48.20;;;;;;5051818;28;20116;-53
2021/12/21 09:54:08;;;;;;;15.38;9.02;;;9.30;48.10;;;;;;5052712;28;20063;-54
2021/12/21 09:56:34;;;;;;;38.08;21.98;;;9.50;49.40;;;;;;5051726;28;20166;-53
2021/12/21 09:59:03;;;;;;;38.58;23.42;;;9.80;47.60;;;;;;5051360;28;20021;-52
2021/12/21 10:01:29;;;;;;;27.10;18.45;;;9.70;48.50;;;;;;5052980;28;20025;-53
2021/12/21 10:03:55;;;;;;;30.83;19.42;;;9.60;46.30;;;;;;5052812;28;20021;-52
2021/12/21 10:06:21;;;;;;;25.30;15.32;;;9.70;47.70;;;;;;5052437;28;20036;-53
2021/12/21 10:08:47;;;;;;;41.47;23.42;;;9.80;47.20;;;;;;5051114;28;20070;-54
2021/12/21 10:11:23;;;;;;;56.78;30.70;;;9.80;46.30;;;;;;5046665;28;20425;-54
2021/12/21 10:13:50;;;;;;;76.20;38.20;;;10.00;46.90;;;;;;5030740;28;20018;-52
2021/12/21 10:16:21;;;;;;;54.13;30.17;;;10.30;46.00;;;;;;5048918;28;20029;-55
2021/12/21 10:18:47;;;;;;;46.95;25.98;;;10.40;45.90;;;;;;5050479;28;20013;-53
2021/12/21 10:21:16;;;;;;;39.70;21.15;;;10.60;45.30;;;;;;5050936;28;20112;-51
2021/12/21 10:23:45;;;;;;;35.80;22.05;;;10.50;46.50;;;;;;5042617;28;20025;-55
2021/12/21 10:26:17;;;;;;;32.50;20.75;;;10.20;47.60;;;;;;5044393;28;20030;-55
2021/12/21 10:28:45;;;;;;;29.95;18.05;;;10.20;46.40;;;;;;5045170;28;20029;-54
2021/12/21 10:31:12;;;;;;;27.67;17.25;;;10.30;46.30;;;;;;5033967;28;20547;-54
2021/12/21 10:33:42;;;;;;;37.25;22.33;;;10.30;46.50;;;;;;5031853;28;20032;-54
2021/12/21 10:36:09;;;;;;;30.13;18.83;;;10.20;45.60;;;;;;5029706;28;20022;-50
2021/12/21 10:38:57;;;;;;;25.38;16.33;;;9.90;47.20;;;;;;5031378;28;20018;-57
2021/12/21 10:41:42;;;;;;;23.25;15.48;;;9.90;45.40;;;;;;5045747;28;20103;-55
2021/12/21 10:44:13;;;;;;;24.67;15.43;;;10.20;45.40;;;;;;5028904;28;20036;-52
2021/12/21 10:46:41;;;;;;;39.15;21.33;;;10.50;44.00;;;;;;5027538;28;20660;-53
2021/12/21 10:49:12;;;;;;;19.90;11.82;;;10.70;44.40;;;;;;5039765;28;20432;-54
2021/12/21 10:51:53;;;;;;;14.18;9.88;;;10.70;43.00;;;;;;5048268;28;20075;-54
2021/12/21 10:54:31;;;;;;;8.75;6.00;;;10.50;40.70;;;;;;5048963;28;20040;-53
2021/12/21 10:56:59;;;;;;;4.93;2.53;;;10.50;42.30;;;;;;5050035;28;20021;-52
2021/12/21 10:59:36;;;;;;;4.00;2.72;;;10.40;41.10;;;;;;5048542;28;20029;-48
2021/12/21 11:02:28;;;;;;;5.47;3.45;;;10.40;42.00;;;;;;5046976;28;20067;-51
2021/12/21 11:05:02;;;;;;;10.07;6.05;;;10.50;40.20;;;;;;5046996;28;20113;-57
2021/12/21 11:07:39;;;;;;;12.13;7.93;;;10.70;38.40;;;;;;5047585;28;20017;-52
2021/12/21 11:10:14;;;;;;;10.85;7.03;;;10.70;40.70;;;;;;5048565;28;20112;-52
2021/12/21 11:12:48;;;;;;;13.00;8.57;;;10.60;41.50;;;;;;5049331;28;20044;-49
2021/12/21 11:15:17;;;;;;;17.83;10.18;;;10.60;41.70;;;;;;5049227;28;20025;-51
2021/12/21 11:17:42;;;;;;;12.77;9.43;;;10.60;41.80;;;;;;5050172;28;20140;-53
2021/12/21 11:20:11;;;;;;;15.07;9.45;;;10.50;39.90;;;;;;5045383;28;20706;-53
2021/12/21 11:22:40;;;;;;;11.90;7.78;;;10.80;40.00;;;;;;5035431;28;20052;-53
2021/12/21 11:25:07;;;;;;;10.55;7.40;;;11.00;39.40;;;;;;5040656;28;20025;-50
2021/12/21 11:27:36;;;;;;;9.52;6.65;;;11.00;39.20;;;;;;5037317;28;20096;-55
2021/12/21 11:30:06;;;;;;;15.50;7.57;;;11.10;40.00;;;;;;5040997;28;20027;-57
2021/12/21 11:32:34;;;;;;;17.63;10.18;;;11.30;39.00;;;;;;5036742;28;20021;-48
2021/12/21 11:37:44;;;;;;;11.18;6.70;;;11.30;39.60;;;;;;5036257;28;20040;-51
2021/12/21 11:40:13;;;;;;;13.48;7.70;;;11.10;40.50;;;;;;5041197;28;20060;-49
2021/12/21 11:42:51;;;;;;;10.98;6.93;;;10.90;39.30;;;;;;5042606;28;20040;-51
2021/12/21 11:45:30;;;;;;;9.27;6.35;;;10.80;39.20;;;;;;5040977;28;20021;-54
2021/12/21 11:47:59;;;;;;;12.05;7.65;;;11.00;38.80;;;;;;5039635;28;20039;-51
2021/12/21 11:50:25;;;;;;;8.60;5.30;;;10.90;39.60;;;;;;5041172;28;20045;-53
2021/12/21 11:52:53;;;;;;;10.27;6.25;;;10.80;39.70;;;;;;5045224;28;20036;-54
2021/12/21 11:55:25;;;;;;;13.93;8.88;;;10.70;41.00;;;;;;5038035;28;20021;-50
2021/12/21 11:57:57;;;;;;;12.45;8.13;;;10.50;41.20;;;;;;5035242;28;20030;-51
2021/12/21 12:00:24;;;;;;;11.00;7.25;;;10.40;39.90;;;;;;5032436;28;20081;-50
2021/12/21 12:02:52;;;;;;;8.15;6.30;;;10.60;39.40;;;;;;5033477;28;20033;-50
2021/12/21 12:05:31;;;;;;;7.30;5.28;;;10.90;38.80;;;;;;5033822;28;20379;-51
2021/12/21 12:08:07;;;;;;;8.05;5.90;;;11.20;39.70;;;;;;5035255;28;20386;-49
2021/12/21 12:10:39;;;;;;;8.13;5.72;;;11.40;38.70;;;;;;5031164;28;20017;-50
2021/12/21 12:13:24;;;;;;;14.68;8.18;;;11.60;38.90;;;;;;5030545;28;20336;-54
2021/12/21 12:16:02;;;;;;;11.10;7.57;;;11.40;39.20;;;;;;5034315;28;20025;-56
2021/12/21 12:18:36;;;;;;;7.75;5.05;;;11.10;38.40;;;;;;5031258;28;21076;-52
2021/12/21 12:21:19;;;;;;;8.32;5.97;;;11.20;40.60;;;;;;5032587;28;20060;-53
2021/12/21 12:23:49;;;;;;;11.40;6.97;;;11.30;38.60;;;;;;5034743;28;20116;-49
2021/12/21 12:26:25;;;;;;;11.05;6.47;;;11.50;37.50;;;;;;5034131;28;20021;-49
2021/12/21 12:28:52;;;;;;;10.48;6.30;;;11.30;39.00;;;;;;5038612;28;20040;-55
2021/12/21 12:31:30;;;;;;;13.35;8.70;;;11.20;37.70;;;;;;5050236;28;20074;-54
2021/12/21 12:33:56;;;;;;;18.60;10.90;;;10.80;37.40;;;;;;5033119;28;20025;-55
2021/12/21 12:36:36;;;;;;;14.52;8.95;;;10.30;37.40;;;;;;5028940;28;20025;-50
2021/12/21 12:39:03;;;;;;;13.60;7.85;;;10.30;38.00;;;;;;5031931;28;20116;-53
2021/12/21 12:41:28;;;;;;;42.65;19.30;;;9.90;38.60;;;;;;5028185;28;20087;-57
2021/12/21 12:43:54;;;;;;;19.50;10.93;;;9.90;39.00;;;;;;5048744;28;20040;-51
2021/12/21 12:46:27;;;;;;;8.70;5.93;;;10.00;38.60;;;;;;5034842;28;20032;-51
2021/12/21 12:48:53;;;;;;;7.23;4.80;;;10.10;39.50;;;;;;5033225;28;20487;-48
2021/12/21 12:51:33;;;;;;;6.35;4.20;;;9.80;39.20;;;;;;5050735;28;20104;-52
2021/12/21 12:54:12;;;;;;;5.35;4.07;;;9.80;39.50;;;;;;5055401;28;20029;-51
2021/12/21 12:56:39;;;;;;;5.93;4.47;;;10.10;38.40;;;;;;5055805;28;20032;-53
2021/12/21 12:59:05;;;;;;;14.00;7.60;;;10.60;38.00;;;;;;5053405;28;20031;-50
2021/12/21 13:01:38;;;;;;;32.72;14.60;;;10.90;37.80;;;;;;5053546;28;20029;-52
2021/12/21 13:04:10;;;;;;;21.23;12.07;;;11.20;36.70;;;;;;5054128;28;20498;-52
2021/12/21 13:06:42;;;;;;;24.85;11.30;;;11.40;36.90;;;;;;5049104;28;20033;-56
2021/12/21 13:09:12;;;;;;;18.00;8.65;;;11.30;36.60;;;;;;5040171;28;20037;-46
2021/12/21 13:11:40;;;;;;;15.65;8.55;;;11.40;35.50;;;;;;5041647;28;20045;-49
2021/12/21 13:14:08;;;;;;;17.42;10.20;;;11.10;36.50;;;;;;5045097;28;20034;-55
2021/12/21 13:16:36;;;;;;;18.30;10.27;;;11.00;36.60;;;;;;5041710;28;20021;-48
2021/12/21 13:19:10;;;;;;;26.90;14.20;;;11.20;36.40;;;;;;5044659;28;20052;-58
2021/12/21 13:21:44;;;;;;;14.15;8.77;;;11.50;36.60;;;;;;5037458;28;20069;-56
2021/12/21 13:24:13;;;;;;;14.77;9.20;;;11.30;37.30;;;;;;5030429;28;20022;-55
2021/12/21 13:26:39;;;;;;;9.95;7.07;;;11.30;35.80;;;;;;5045696;28;20503;-52
2021/12/21 13:29:10;;;;;;;8.63;6.10;;;11.30;35.20;;;;;;5050997;28;20071;-52
2021/12/21 13:31:40;;;;;;;7.82;4.72;;;11.20;35.40;;;;;;5048562;28;20029;-55
2021/12/21 13:34:09;;;;;;;9.05;4.15;;;11.20;36.30;;;;;;5052626;28;20112;-56
2021/12/21 13:36:47;;;;;;;5.13;3.60;;;11.10;36.10;;;;;;5051709;28;20021;-56
2021/12/21 13:39:23;;;;;;;4.75;3.70;;;11.20;37.10;;;;;;5051545;28;20425;-52
2021/12/21 13:41:52;;;;;;;9.50;5.60;;;11.40;36.40;;;;;;5052912;28;20032;-56
2021/12/21 13:44:27;;;;;;;10.32;6.53;;;11.50;36.20;;;;;;5053716;28;20037;-50
2021/12/21 13:46:54;;;;;;;9.43;5.30;;;11.40;34.90;;;;;;5053346;28;20020;-54
2021/12/21 13:49:20;;;;;;;8.20;5.60;;;11.30;35.00;;;;;;5042613;28;20132;-53